createdAt,value
2024-02-23T00:01:49.038Z,9.50
2024-02-23T00:04:16.602Z,13.60
2024-02-23T00:06:44.156Z,9.00
2024-02-23T00:09:11.715Z,10.20
2024-02-23T00:11:45.897Z,12.20
2024-02-23T00:14:14.420Z,10.00
2024-02-23T00:16:42.124Z,9.10
2024-02-23T00:19:10.943Z,11.20
2024-02-23T00:21:39.748Z,9.40
2024-02-23T00:24:07.742Z,10.20
2024-02-23T00:26:35.373Z,9.90
2024-02-23T00:29:03.997Z,12.40
2024-02-23T00:31:31.602Z,9.20
2024-02-23T00:33:59.351Z,9.30
2024-02-23T00:36:27.009Z,9.30
2024-02-23T00:38:54.538Z,11.50
2024-02-23T00:41:22.064Z,9.30
2024-02-23T00:43:49.626Z,7.10
2024-02-23T00:46:17.603Z,9.40
2024-02-23T00:48:45.352Z,8.90
2024-02-23T00:51:12.861Z,10.10
2024-02-23T00:53:40.396Z,8.90
2024-02-23T00:56:08.146Z,11.60
2024-02-23T00:58:35.647Z,11.00
2024-02-23T01:01:03.537Z,9.80
2024-02-23T01:03:31.075Z,11.20
2024-02-23T01:05:58.714Z,10.20
2024-02-23T01:08:26.319Z,10.90
2024-02-23T01:10:53.820Z,9.10
2024-02-23T01:13:21.413Z,9.50
2024-02-23T01:15:48.959Z,11.10
2024-02-23T01:18:16.650Z,10.10
2024-02-23T01:20:44.412Z,10.80
2024-02-23T01:23:12.028Z,11.40
2024-02-23T01:25:40.419Z,9.70
2024-02-23T01:28:07.893Z,12.10
2024-02-23T01:30:35.414Z,11.40
2024-02-23T01:33:04.099Z,11.10
2024-02-23T01:35:32.197Z,10.90
2024-02-23T01:38:00.007Z,10.40
2024-02-23T01:40:27.654Z,10.10
2024-02-23T01:43:07.672Z,11.10
2024-02-23T01:45:35.159Z,12.00
2024-02-23T01:48:02.881Z,11.60
2024-02-23T01:50:30.689Z,10.00
2024-02-23T01:53:00.353Z,10.00
2024-02-23T01:55:27.845Z,11.60
2024-02-23T01:57:55.345Z,11.40
2024-02-23T02:00:22.830Z,10.30
2024-02-23T02:02:53.093Z,10.70
2024-02-23T02:05:20.664Z,10.70
2024-02-23T02:07:49.151Z,10.90
2024-02-23T02:10:16.651Z,11.20
2024-02-23T02:12:44.277Z,9.70
2024-02-23T02:15:11.757Z,11.60
2024-02-23T02:17:39.325Z,12.00
2024-02-23T02:20:08.116Z,12.30
2024-02-23T02:22:35.752Z,10.60
2024-02-23T02:25:03.488Z,12.50
2024-02-23T02:27:31.021Z,11.90
2024-02-23T02:29:59.040Z,13.00
2024-02-23T02:32:26.630Z,12.90
2024-02-23T02:34:54.395Z,14.50
2024-02-23T02:37:22.003Z,14.00
2024-02-23T02:39:49.489Z,12.30
2024-02-23T02:42:17.669Z,12.30
2024-02-23T02:44:45.164Z,10.60
2024-02-23T02:47:12.791Z,10.60
2024-02-23T02:49:41.197Z,11.20
2024-02-23T02:52:09.841Z,15.50
2024-02-23T02:54:37.293Z,13.80
2024-02-23T02:57:04.848Z,14.10
2024-02-23T02:59:36.794Z,14.00
2024-02-23T03:02:04.682Z,14.40
2024-02-23T03:04:32.312Z,13.20
2024-02-23T03:06:59.799Z,12.70
2024-02-23T03:09:27.376Z,12.30
2024-02-23T03:11:54.866Z,13.70
2024-02-23T03:14:23.249Z,13.60
2024-02-23T03:16:50.889Z,15.10
2024-02-23T03:19:21.284Z,15.90
2024-02-23T03:21:48.920Z,14.20
2024-02-23T03:24:16.433Z,12.80
2024-02-23T03:26:44.074Z,14.60
2024-02-23T03:29:12.098Z,15.10
2024-02-23T03:31:39.715Z,16.50
2024-02-23T03:34:07.204Z,13.80
2024-02-23T03:36:35.854Z,16.30
2024-02-23T03:39:03.351Z,21.50
2024-02-23T03:41:30.900Z,21.10
2024-02-23T03:43:58.615Z,21.00
2024-02-23T03:46:26.226Z,18.80
2024-02-23T03:48:54.068Z,18.70
2024-02-23T03:51:21.611Z,13.90
2024-02-23T03:53:49.106Z,14.30
2024-02-23T03:56:17.349Z,14.40
2024-02-23T03:58:44.836Z,13.00
2024-02-23T04:01:12.413Z,13.50
2024-02-23T04:03:39.941Z,16.60
2024-02-23T04:06:08.798Z,14.20
2024-02-23T04:08:36.856Z,14.30
2024-02-23T04:11:04.681Z,16.80
2024-02-23T04:13:32.285Z,20.50
2024-02-23T04:16:02.349Z,13.60
2024-02-23T04:18:29.999Z,16.10
2024-02-23T04:20:57.448Z,14.70
2024-02-23T04:23:25.126Z,13.10
2024-02-23T04:25:52.721Z,17.50
2024-02-23T04:28:20.208Z,18.10
2024-02-23T04:30:47.765Z,13.30
2024-02-23T04:33:15.302Z,15.10
2024-02-23T04:35:42.942Z,14.70
2024-02-23T04:38:10.505Z,16.90
2024-02-23T04:40:38.144Z,15.00
2024-02-23T04:43:05.725Z,17.20
2024-02-23T04:45:33.334Z,13.90
2024-02-23T04:48:00.875Z,12.10
2024-02-23T04:50:28.469Z,16.20
2024-02-23T04:52:56.057Z,13.20
2024-02-23T04:55:23.552Z,13.60
2024-02-23T04:57:51.343Z,15.20
2024-02-23T05:00:19.017Z,16.00
2024-02-23T05:02:47.723Z,14.20
2024-02-23T05:05:15.304Z,15.90
2024-02-23T05:07:42.954Z,15.90
2024-02-23T05:10:11.353Z,13.70
2024-02-23T05:12:38.860Z,13.50
2024-02-23T05:15:06.828Z,15.40
2024-02-23T05:17:34.388Z,14.80
2024-02-23T05:20:02.201Z,14.20
2024-02-23T05:22:29.770Z,13.30
2024-02-23T05:24:57.349Z,12.30
2024-02-23T05:27:24.837Z,15.30
2024-02-23T05:29:52.323Z,14.50
2024-02-23T05:32:20.466Z,14.00
2024-02-23T05:34:47.994Z,13.30
2024-02-23T05:37:15.522Z,15.30
2024-02-23T05:39:44.815Z,16.50
2024-02-23T05:42:14.415Z,15.60
2024-02-23T05:44:44.870Z,14.40
2024-02-23T05:47:12.409Z,15.70
2024-02-23T05:49:39.962Z,16.90
2024-02-23T05:52:07.962Z,16.20
2024-02-23T05:54:35.510Z,16.30
2024-02-23T05:57:04.281Z,15.10
2024-02-23T05:59:31.982Z,14.30
2024-02-23T06:01:59.619Z,16.40
2024-02-23T06:04:28.346Z,16.10
2024-02-23T06:06:56.087Z,12.50
2024-02-23T06:09:23.764Z,20.10
2024-02-23T06:11:51.417Z,15.30
2024-02-23T06:14:19.175Z,14.70
2024-02-23T06:16:46.777Z,16.60
2024-02-23T06:19:14.279Z,14.70
2024-02-23T06:21:41.825Z,15.40
2024-02-23T06:24:10.114Z,16.50
2024-02-23T06:26:37.819Z,18.30
2024-02-23T06:29:07.277Z,16.00
2024-02-23T06:31:36.067Z,19.70
2024-02-23T06:34:03.843Z,16.00
2024-02-23T06:36:31.705Z,17.60
2024-02-23T06:38:59.204Z,15.50
2024-02-23T06:41:27.815Z,19.50
2024-02-23T06:43:55.962Z,18.80
2024-02-23T06:46:23.764Z,17.10
2024-02-23T06:48:51.363Z,21.80
2024-02-23T06:51:19.130Z,15.60
2024-02-23T06:53:46.814Z,18.20
2024-02-23T06:56:14.901Z,18.80
2024-02-23T06:58:42.462Z,16.60
2024-02-23T07:01:13.788Z,19.90
2024-02-23T07:03:44.069Z,18.20
2024-02-23T07:08:39.721Z,18.20
2024-02-23T07:11:07.572Z,17.50
2024-02-23T07:13:35.270Z,18.90
2024-02-23T07:16:03.308Z,17.60
2024-02-23T07:18:30.926Z,16.20
2024-02-23T07:20:58.392Z,17.50
2024-02-23T07:23:25.942Z,18.10
2024-02-23T07:25:54.485Z,16.30
2024-02-23T07:28:23.605Z,16.10
2024-02-23T07:30:51.276Z,16.70
2024-02-23T07:33:18.792Z,19.00
2024-02-23T07:35:46.603Z,19.80
2024-02-23T07:38:14.706Z,19.00
2024-02-23T07:40:42.337Z,18.70
2024-02-23T07:43:12.044Z,20.00
2024-02-23T07:45:39.710Z,17.70
2024-02-23T07:48:07.635Z,21.10
2024-02-23T07:50:35.333Z,17.70
2024-02-23T07:53:02.986Z,18.90
2024-02-23T07:55:30.669Z,19.10
2024-02-23T07:58:02.961Z,17.40
2024-02-23T08:00:30.842Z,17.40
2024-02-23T08:03:00.335Z,18.40
2024-02-23T08:05:27.876Z,19.70
2024-02-23T08:07:55.648Z,16.10
2024-02-23T08:10:23.516Z,23.80
2024-02-23T08:12:51.100Z,20.80
2024-02-23T08:15:18.859Z,16.60
2024-02-23T08:17:46.473Z,20.30
2024-02-23T08:20:14.237Z,19.20
2024-02-23T08:22:41.870Z,19.40
2024-02-23T08:25:11.785Z,19.30
2024-02-23T08:27:42.191Z,16.70
2024-02-23T08:30:12.125Z,19.00
2024-02-23T08:32:40.032Z,18.10
2024-02-23T08:35:09.680Z,20.40
2024-02-23T08:37:37.281Z,15.80
2024-02-23T08:40:07.619Z,16.40
2024-02-23T08:42:35.329Z,18.70
2024-02-23T08:45:03.513Z,17.10
2024-02-23T08:47:34.279Z,17.70
2024-02-23T08:50:02.548Z,17.80
2024-02-23T08:52:30.191Z,22.30
2024-02-23T08:54:57.847Z,20.10
2024-02-23T08:57:25.508Z,20.50
2024-02-23T08:59:53.183Z,19.90
2024-02-23T09:02:21.665Z,18.40
2024-02-23T09:04:49.392Z,20.50
2024-02-23T09:07:17.351Z,19.60
2024-02-23T09:09:45.880Z,23.90
2024-02-23T09:12:16.220Z,23.80
2024-02-23T09:14:44.551Z,19.40
2024-02-23T09:17:12.752Z,20.70
2024-02-23T09:19:40.548Z,21.80
2024-02-23T09:22:08.507Z,22.60
2024-02-23T09:24:36.733Z,22.90
2024-02-23T09:27:04.706Z,21.70
2024-02-23T09:29:32.607Z,19.20
2024-02-23T09:32:01.547Z,19.10
2024-02-23T09:34:30.775Z,20.50
2024-02-23T09:36:58.581Z,20.80
2024-02-23T09:39:27.776Z,22.30
2024-02-23T09:41:55.667Z,20.60
2024-02-23T09:44:23.894Z,22.70
2024-02-23T09:46:51.709Z,33.70
2024-02-23T09:49:19.576Z,30.20
2024-02-23T09:51:47.317Z,29.60
2024-02-23T09:54:16.354Z,28.20
2024-02-23T09:56:45.143Z,22.70
2024-02-23T09:59:13.020Z,34.20
2024-02-23T10:01:40.672Z,25.90
2024-02-23T10:04:09.435Z,21.80
2024-02-23T10:06:37.152Z,24.50
2024-02-23T10:09:05.747Z,28.60
2024-02-23T10:11:33.679Z,26.00
2024-02-23T10:14:01.340Z,23.00
2024-02-23T10:16:28.996Z,23.00
2024-02-23T10:18:56.710Z,21.20
2024-02-23T10:21:24.819Z,22.30
2024-02-23T10:23:53.407Z,27.20
2024-02-23T10:26:24.042Z,25.90
2024-02-23T10:28:52.686Z,25.80
2024-02-23T10:31:20.590Z,22.80
2024-02-23T10:33:49.205Z,24.70
2024-02-23T10:36:17.659Z,26.50
2024-02-23T10:38:46.730Z,28.50
2024-02-23T10:41:15.515Z,28.60
2024-02-23T10:43:46.062Z,23.90
2024-02-23T10:46:16.782Z,25.70
2024-02-23T10:48:45.201Z,27.80
2024-02-23T10:51:17.665Z,23.00
2024-02-23T10:53:48.211Z,26.30
2024-02-23T10:56:15.762Z,22.80
2024-02-23T10:58:43.267Z,24.00
2024-02-23T11:01:10.945Z,27.10
2024-02-23T11:03:38.973Z,24.80
2024-02-23T11:06:09.682Z,27.60
2024-02-23T11:08:40.587Z,27.80
2024-02-23T11:11:09.567Z,22.60
2024-02-23T11:13:40.271Z,23.30
2024-02-23T11:16:12.362Z,20.90
2024-02-23T11:18:43.679Z,23.80
2024-02-23T11:21:11.653Z,24.00
2024-02-23T11:23:44.000Z,22.90
2024-02-23T11:26:12.529Z,30.40
2024-02-23T11:28:59.458Z,24.00
2024-02-23T11:31:30.825Z,25.00
2024-02-23T11:33:58.792Z,23.80
2024-02-23T11:36:30.342Z,24.90
2024-02-23T11:38:58.961Z,25.90
2024-02-23T11:41:26.809Z,24.10
2024-02-23T11:43:55.415Z,25.00
2024-02-23T11:46:23.426Z,25.40
2024-02-23T11:48:57.408Z,25.40
2024-02-23T11:51:28.160Z,28.00
2024-02-23T11:53:57.468Z,27.70
2024-02-23T11:56:25.313Z,29.80
2024-02-23T11:58:55.076Z,40.30
2024-02-23T12:01:23.079Z,28.20
2024-02-23T12:03:50.689Z,24.20
2024-02-23T12:06:18.206Z,27.80
2024-02-23T12:08:46.547Z,28.20
2024-02-23T12:11:15.488Z,25.40
2024-02-23T12:13:44.105Z,23.00
2024-02-23T12:16:11.628Z,26.00
2024-02-23T12:18:39.133Z,27.70
2024-02-23T12:21:10.049Z,26.60
2024-02-23T12:23:44.559Z,30.10
2024-02-23T12:26:14.623Z,27.80
2024-02-23T12:28:42.566Z,25.90
2024-02-23T12:31:10.593Z,27.40
2024-02-23T12:33:42.136Z,26.90
2024-02-23T12:36:10.276Z,26.70
2024-02-23T12:38:38.102Z,25.10
2024-02-23T12:41:06.105Z,25.80
2024-02-23T12:43:33.885Z,27.40
2024-02-23T12:46:03.293Z,26.40
2024-02-23T12:48:30.934Z,24.50
2024-02-23T12:50:58.421Z,25.60
2024-02-23T12:53:39.518Z,27.60
2024-02-23T12:56:15.088Z,25.80
2024-02-23T12:58:43.367Z,29.50
2024-02-23T13:01:11.288Z,23.20
2024-02-23T13:03:39.876Z,30.10
2024-02-23T13:06:08.495Z,28.30
2024-02-23T13:08:36.244Z,31.20
2024-02-23T13:11:05.053Z,37.20
2024-02-23T13:13:33.320Z,48.70
2024-02-23T13:16:00.847Z,27.30
2024-02-23T13:18:28.601Z,29.30
2024-02-23T13:20:56.468Z,28.80
2024-02-23T13:23:24.190Z,29.40
2024-02-23T13:25:51.819Z,32.50
2024-02-23T13:28:19.597Z,30.00
2024-02-23T13:30:47.158Z,29.10
2024-02-23T13:33:16.095Z,29.20
2024-02-23T13:35:44.878Z,33.00
2024-02-23T13:38:12.538Z,34.40
2024-02-23T13:40:40.150Z,31.70
2024-02-23T13:43:07.698Z,33.10
2024-02-23T13:45:35.286Z,30.80
2024-02-23T13:48:04.541Z,31.70
2024-02-23T13:50:32.268Z,30.40
2024-02-23T13:53:00.193Z,29.90
2024-02-23T13:55:27.824Z,31.30
2024-02-23T13:57:55.431Z,33.40
2024-02-23T14:00:23.375Z,33.30
2024-02-23T14:02:51.065Z,29.40
2024-02-23T14:05:20.109Z,34.90
2024-02-23T14:07:47.775Z,32.30
2024-02-23T14:10:15.360Z,29.50
2024-02-23T14:12:43.086Z,33.10
2024-02-23T14:15:11.871Z,30.50
2024-02-23T14:17:39.737Z,47.80
2024-02-23T14:20:08.608Z,45.90
2024-02-23T14:22:36.269Z,36.00
2024-02-23T14:25:03.859Z,33.60
2024-02-23T14:27:32.131Z,35.10
2024-02-23T14:30:00.561Z,39.50
2024-02-23T14:32:29.269Z,31.90
2024-02-23T14:34:59.025Z,34.50
2024-02-23T14:37:26.804Z,36.30
2024-02-23T14:39:54.351Z,33.90
2024-02-23T14:42:21.837Z,37.20
2024-02-23T14:44:51.414Z,35.60
2024-02-23T14:47:22.266Z,36.50
2024-02-23T14:49:54.153Z,32.50
2024-02-23T14:52:21.857Z,45.00
2024-02-23T14:54:49.325Z,38.00
2024-02-23T14:57:16.836Z,31.90
2024-02-23T14:59:48.144Z,33.50
2024-02-23T15:02:21.746Z,35.30
2024-02-23T15:04:49.720Z,40.50
2024-02-23T15:07:17.876Z,36.20
2024-02-23T15:09:45.492Z,37.10
2024-02-23T15:12:13.197Z,32.90
2024-02-23T15:14:41.283Z,34.20
2024-02-23T15:17:09.101Z,37.00
2024-02-23T15:19:36.789Z,34.40
2024-02-23T15:22:04.712Z,33.40
2024-02-23T15:24:33.566Z,38.10
2024-02-23T15:27:01.667Z,37.40
2024-02-23T15:29:30.129Z,36.50
2024-02-23T15:31:57.746Z,34.40
2024-02-23T15:34:25.368Z,34.30
2024-02-23T15:36:53.003Z,36.10
2024-02-23T15:39:20.488Z,36.60
2024-02-23T15:41:48.243Z,31.70
2024-02-23T15:44:15.773Z,32.60
2024-02-23T15:46:43.368Z,32.50
2024-02-23T15:49:21.821Z,32.90
2024-02-23T15:52:01.361Z,33.80
2024-02-23T15:54:31.439Z,34.90
2024-02-23T15:56:59.438Z,30.80
2024-02-23T15:59:27.882Z,33.00
2024-02-23T16:01:56.805Z,32.50
2024-02-23T16:04:24.352Z,33.10
2024-02-23T16:06:51.808Z,38.90
2024-02-23T16:09:19.722Z,37.90
2024-02-23T16:11:50.663Z,35.90
2024-02-23T16:14:18.883Z,34.00
2024-02-23T16:16:46.493Z,35.20
2024-02-23T16:19:14.284Z,33.00
2024-02-23T16:21:47.162Z,30.50
2024-02-23T16:24:14.671Z,31.30
2024-02-23T16:26:42.373Z,33.20
2024-02-23T16:29:09.962Z,33.20
2024-02-23T16:31:43.476Z,40.40
2024-02-23T16:34:10.980Z,32.70
2024-02-23T16:36:38.456Z,30.90
2024-02-23T16:39:08.968Z,35.70
2024-02-23T16:41:37.076Z,30.40
2024-02-23T16:44:05.129Z,30.80
2024-02-23T16:46:32.727Z,33.70
2024-02-23T16:49:00.963Z,32.20
2024-02-23T16:51:29.924Z,36.70
2024-02-23T16:53:57.560Z,33.70
2024-02-23T16:56:27.181Z,35.30
2024-02-23T16:58:55.004Z,32.50
2024-02-23T17:01:22.511Z,32.80
2024-02-23T17:03:50.342Z,32.00
2024-02-23T17:06:18.021Z,34.10
2024-02-23T17:08:45.621Z,35.60
2024-02-23T17:11:13.400Z,29.80
2024-02-23T17:13:44.651Z,35.10
2024-02-23T17:16:12.221Z,30.50
2024-02-23T17:18:39.767Z,34.00
2024-02-23T17:21:07.274Z,32.90
2024-02-23T17:23:34.969Z,34.70
2024-02-23T17:26:02.620Z,31.80
2024-02-23T17:28:30.126Z,34.70
2024-02-23T17:30:57.606Z,36.50
2024-02-23T17:33:25.181Z,37.50
2024-02-23T17:35:52.698Z,33.60
2024-02-23T17:38:20.259Z,34.10
2024-02-23T17:40:51.727Z,37.30
2024-02-23T17:43:19.494Z,32.30
2024-02-23T17:45:46.954Z,31.60
2024-02-23T17:48:14.542Z,33.60
2024-02-23T17:50:42.078Z,30.10
2024-02-23T17:53:09.841Z,34.30
2024-02-23T17:55:37.374Z,36.80
2024-02-23T17:58:12.428Z,33.20
2024-02-23T18:00:47.278Z,36.40
2024-02-23T18:03:14.878Z,34.50
2024-02-23T18:05:42.470Z,35.50
2024-02-23T18:08:10.163Z,32.50
2024-02-23T18:10:39.019Z,35.90
2024-02-23T18:13:06.557Z,34.80
2024-02-23T18:15:34.150Z,31.80
2024-02-23T18:18:01.869Z,29.20
2024-02-23T18:20:29.522Z,33.30
2024-02-23T18:22:57.885Z,35.00
2024-02-23T18:25:25.666Z,31.50
2024-02-23T18:27:53.220Z,30.20
2024-02-23T18:30:20.913Z,40.30
2024-02-23T18:32:48.603Z,34.30
2024-02-23T18:35:16.333Z,32.90
2024-02-23T18:37:46.359Z,31.70
2024-02-23T18:40:15.513Z,32.90
2024-02-23T18:42:43.039Z,32.00
2024-02-23T18:45:10.857Z,31.70
2024-02-23T18:47:38.524Z,34.00
2024-02-23T18:50:06.325Z,32.00
2024-02-23T18:52:34.410Z,38.10
2024-02-23T18:55:02.091Z,31.90
2024-02-23T18:57:30.708Z,29.60
2024-02-23T18:59:58.346Z,31.20
2024-02-23T19:02:25.990Z,30.80
2024-02-23T19:04:53.675Z,28.70
2024-02-23T19:07:21.274Z,32.70
2024-02-23T19:09:48.792Z,38.30
2024-02-23T19:12:16.728Z,33.40
2024-02-23T19:14:44.434Z,30.60
2024-02-23T19:17:12.345Z,33.40
2024-02-23T19:19:40.026Z,37.00
2024-02-23T19:22:07.669Z,30.80
2024-02-23T19:24:35.635Z,31.30
2024-02-23T19:27:03.266Z,42.50
2024-02-23T19:29:31.182Z,34.10
2024-02-23T19:31:58.965Z,31.90
2024-02-23T19:34:26.711Z,38.60
2024-02-23T19:36:55.558Z,37.10
2024-02-23T19:39:23.293Z,32.80
2024-02-23T19:41:50.912Z,35.20
2024-02-23T19:44:18.738Z,44.70
2024-02-23T19:46:48.063Z,42.80
2024-02-23T19:49:15.713Z,35.70
2024-02-23T19:51:43.278Z,37.50
2024-02-23T19:54:10.783Z,49.50
2024-02-23T19:56:38.378Z,38.90
2024-02-23T19:59:06.020Z,38.40
2024-02-23T20:01:33.581Z,37.40
2024-02-23T20:04:01.606Z,44.50
2024-02-23T20:06:29.266Z,35.80
2024-02-23T20:08:56.792Z,37.80
2024-02-23T20:11:24.500Z,39.60
2024-02-23T20:13:52.300Z,39.30
2024-02-23T20:16:20.239Z,40.20
2024-02-23T20:18:47.890Z,39.10
2024-02-23T20:21:15.583Z,44.20
2024-02-23T20:23:43.280Z,38.60
2024-02-23T20:26:11.298Z,41.50
2024-02-23T20:28:38.855Z,36.10
2024-02-23T20:31:07.744Z,40.40
2024-02-23T20:33:35.667Z,36.30
2024-02-23T20:36:03.793Z,39.80
2024-02-23T20:38:31.780Z,44.10
2024-02-23T20:40:59.739Z,37.60
2024-02-23T20:43:27.891Z,36.40
2024-02-23T20:45:57.318Z,38.70
2024-02-23T20:48:25.112Z,37.00
2024-02-23T20:50:52.856Z,44.80
2024-02-23T20:53:20.494Z,41.90
2024-02-23T20:55:50.902Z,40.60
2024-02-23T20:58:18.929Z,44.60
2024-02-23T21:00:49.372Z,38.60
2024-02-23T21:03:17.822Z,42.20
2024-02-23T21:05:45.471Z,42.50
2024-02-23T21:08:13.339Z,41.20
2024-02-23T21:10:41.489Z,39.20
2024-02-23T21:13:09.099Z,41.60
2024-02-23T21:15:38.066Z,45.30
2024-02-23T21:18:06.468Z,38.10
2024-02-23T21:20:34.203Z,41.70
2024-02-23T21:23:01.769Z,45.10
2024-02-23T21:25:29.288Z,41.30
2024-02-23T21:27:56.810Z,43.10
2024-02-23T21:30:24.319Z,44.10
2024-02-23T21:32:52.694Z,44.00
2024-02-23T21:35:21.403Z,37.10
2024-02-23T21:37:49.031Z,41.00
2024-02-23T21:40:17.671Z,41.80
2024-02-23T21:42:45.866Z,44.40
2024-02-23T21:45:13.537Z,44.10
2024-02-23T21:47:41.034Z,42.30
2024-02-23T21:50:09.847Z,36.10
2024-02-23T21:52:40.248Z,36.10
2024-02-23T21:55:09.983Z,40.90
2024-02-23T21:57:37.591Z,35.90
2024-02-23T22:00:06.113Z,43.00
2024-02-23T22:02:33.647Z,34.20
2024-02-23T22:05:02.658Z,37.20
2024-02-23T22:07:30.326Z,48.00
2024-02-23T22:09:57.905Z,39.00
2024-02-23T22:12:27.534Z,37.80
2024-02-23T22:14:55.471Z,44.00
2024-02-23T22:17:22.993Z,38.00
2024-02-23T22:19:50.607Z,45.30
2024-02-23T22:22:18.682Z,40.30
2024-02-23T22:24:46.243Z,36.50
2024-02-23T22:27:16.404Z,38.70
2024-02-23T22:34:41.926Z,42.00
2024-02-23T22:37:09.446Z,37.90
2024-02-23T22:39:36.939Z,42.20
2024-02-23T22:42:05.658Z,36.30
2024-02-23T22:44:33.350Z,40.70
2024-02-23T22:47:00.895Z,39.30
2024-02-23T22:49:28.410Z,35.40
2024-02-23T22:51:55.897Z,35.50
2024-02-23T22:54:23.368Z,37.50
2024-02-23T22:56:50.968Z,38.10
2024-02-23T22:59:19.147Z,35.30
2024-02-23T23:01:46.875Z,38.90
2024-02-23T23:04:14.403Z,34.10
2024-02-23T23:06:45.896Z,38.70
2024-02-23T23:09:13.722Z,42.50
2024-02-23T23:11:41.479Z,35.40
2024-02-23T23:14:09.226Z,36.80
2024-02-23T23:16:36.848Z,37.00
2024-02-23T23:19:04.574Z,33.80
2024-02-23T23:21:32.382Z,39.50
2024-02-23T23:24:00.012Z,35.10
2024-02-23T23:26:27.769Z,40.70
2024-02-23T23:28:56.492Z,37.60
2024-02-23T23:31:26.193Z,35.80
2024-02-23T23:33:55.582Z,35.30
2024-02-23T23:36:23.260Z,35.80
2024-02-23T23:38:50.841Z,37.10
2024-02-23T23:41:18.499Z,35.00
2024-02-23T23:43:46.742Z,33.40
2024-02-23T23:46:15.032Z,38.80
2024-02-23T23:48:42.725Z,34.70
2024-02-23T23:51:10.478Z,36.50
2024-02-23T23:53:38.170Z,32.00
2024-02-23T23:56:05.917Z,36.40
2024-02-23T23:58:33.438Z,32.80
